sensor_id;sensor_type;location;lat;lon;timestamp;P1;durP1;ratioP1;P2;durP2;ratioP2
21183;SDS011;18176;49.502;11.754;2023-12-20T00:02:11;8.97;;;6.50;;
21183;SDS011;18176;49.502;11.754;2023-12-20T00:06:12;8.97;;;6.23;;
21183;SDS011;18176;49.502;11.754;2023-12-20T00:10:13;14.80;;;7.33;;
21183;SDS011;18176;49.502;11.754;2023-12-20T00:14:16;10.73;;;7.03;;
21183;SDS011;18176;49.502;11.754;2023-12-20T00:18:16;9.80;;;6.70;;
21183;SDS011;18176;49.502;11.754;2023-12-20T00:22:17;9.33;;;6.30;;
21183;SDS011;18176;49.502;11.754;2023-12-20T00:26:17;9.20;;;6.57;;
21183;SDS011;18176;49.502;11.754;2023-12-20T00:30:20;12.13;;;6.67;;
21183;SDS011;18176;49.502;11.754;2023-12-20T00:34:20;11.63;;;7.37;;
21183;SDS011;18176;49.502;11.754;2023-12-20T00:38:21;12.57;;;7.53;;
21183;SDS011;18176;49.502;11.754;2023-12-20T00:42:21;14.87;;;8.37;;
21183;SDS011;18176;49.502;11.754;2023-12-20T00:46:24;13.03;;;7.93;;
21183;SDS011;18176;49.502;11.754;2023-12-20T00:50:24;13.23;;;7.93;;
21183;SDS011;18176;49.502;11.754;2023-12-20T00:54:26;10.47;;;7.20;;
21183;SDS011;18176;49.502;11.754;2023-12-20T00:58:27;11.13;;;7.37;;
21183;SDS011;18176;49.502;11.754;2023-12-20T01:02:30;11.87;;;7.40;;
21183;SDS011;18176;49.502;11.754;2023-12-20T01:06:33;12.63;;;7.33;;
21183;SDS011;18176;49.502;11.754;2023-12-20T01:10:34;11.10;;;7.17;;
21183;SDS011;18176;49.502;11.754;2023-12-20T01:14:34;10.40;;;7.20;;
21183;SDS011;18176;49.502;11.754;2023-12-20T01:18:38;12.20;;;7.23;;
21183;SDS011;18176;49.502;11.754;2023-12-20T01:22:38;10.67;;;6.50;;
21183;SDS011;18176;49.502;11.754;2023-12-20T01:26:39;9.43;;;7.03;;
21183;SDS011;18176;49.502;11.754;2023-12-20T01:30:39;10.67;;;6.87;;
21183;SDS011;18176;49.502;11.754;2023-12-20T01:34:42;11.90;;;7.10;;
21183;SDS011;18176;49.502;11.754;2023-12-20T01:38:43;9.13;;;6.13;;
21183;SDS011;18176;49.502;11.754;2023-12-20T01:42:43;11.13;;;6.70;;
21183;SDS011;18176;49.502;11.754;2023-12-20T01:46:44;7.17;;;5.33;;
21183;SDS011;18176;49.502;11.754;2023-12-20T01:50:48;5.93;;;4.63;;
21183;SDS011;18176;49.502;11.754;2023-12-20T01:54:48;5.93;;;3.87;;
21183;SDS011;18176;49.502;11.754;2023-12-20T01:58:51;5.20;;;3.83;;
21183;SDS011;18176;49.502;11.754;2023-12-20T02:02:52;4.27;;;3.57;;
21183;SDS011;18176;49.502;11.754;2023-12-20T02:07:00;5.03;;;3.60;;
21183;SDS011;18176;49.502;11.754;2023-12-20T02:11:03;4.40;;;3.23;;
21183;SDS011;18176;49.502;11.754;2023-12-20T02:15:03;4.50;;;3.07;;
21183;SDS011;18176;49.502;11.754;2023-12-20T02:19:06;4.67;;;2.80;;
21183;SDS011;18176;49.502;11.754;2023-12-20T02:23:16;2.70;;;2.10;;
21183;SDS011;18176;49.502;11.754;2023-12-20T02:27:17;5.63;;;2.00;;
21183;SDS011;18176;49.502;11.754;2023-12-20T02:31:20;2.40;;;1.87;;
21183;SDS011;18176;49.502;11.754;2023-12-20T02:35:21;2.10;;;1.90;;
21183;SDS011;18176;49.502;11.754;2023-12-20T02:39:24;3.33;;;1.73;;
21183;SDS011;18176;49.502;11.754;2023-12-20T02:43:24;1.60;;;1.50;;
21183;SDS011;18176;49.502;11.754;2023-12-20T02:47:24;1.30;;;1.20;;
21183;SDS011;18176;49.502;11.754;2023-12-20T02:51:26;1.53;;;1.40;;
21183;SDS011;18176;49.502;11.754;2023-12-20T02:55:29;1.67;;;1.43;;
21183;SDS011;18176;49.502;11.754;2023-12-20T02:59:29;2.43;;;1.30;;
21183;SDS011;18176;49.502;11.754;2023-12-20T03:03:29;1.83;;;1.40;;
21183;SDS011;18176;49.502;11.754;2023-12-20T03:07:30;1.80;;;1.33;;
21183;SDS011;18176;49.502;11.754;2023-12-20T03:11:33;1.73;;;1.00;;
21183;SDS011;18176;49.502;11.754;2023-12-20T03:15:33;1.10;;;1.00;;
21183;SDS011;18176;49.502;11.754;2023-12-20T03:19:34;3.97;;;1.00;;
21183;SDS011;18176;49.502;11.754;2023-12-20T03:23:34;1.13;;;0.90;;
21183;SDS011;18176;49.502;11.754;2023-12-20T03:27:39;0.50;;;0.50;;
21183;SDS011;18176;49.502;11.754;2023-12-20T03:31:39;0.70;;;0.67;;
21183;SDS011;18176;49.502;11.754;2023-12-20T03:35:40;0.73;;;0.53;;
21183;SDS011;18176;49.502;11.754;2023-12-20T03:39:41;0.67;;;0.57;;
21183;SDS011;18176;49.502;11.754;2023-12-20T03:43:43;0.83;;;0.77;;
21183;SDS011;18176;49.502;11.754;2023-12-20T03:47:44;0.50;;;0.50;;
21183;SDS011;18176;49.502;11.754;2023-12-20T03:51:45;0.83;;;0.60;;
21183;SDS011;18176;49.502;11.754;2023-12-20T03:55:45;2.37;;;0.50;;
21183;SDS011;18176;49.502;11.754;2023-12-20T03:59:48;0.40;;;0.40;;
21183;SDS011;18176;49.502;11.754;2023-12-20T04:03:48;1.03;;;0.60;;
21183;SDS011;18176;49.502;11.754;2023-12-20T04:07:49;0.40;;;0.40;;
21183;SDS011;18176;49.502;11.754;2023-12-20T04:11:49;1.27;;;0.60;;
21183;SDS011;18176;49.502;11.754;2023-12-20T04:15:53;0.40;;;0.40;;
21183;SDS011;18176;49.502;11.754;2023-12-20T04:19:53;0.70;;;0.57;;
21183;SDS011;18176;49.502;11.754;2023-12-20T04:23:54;0.93;;;0.47;;
21183;SDS011;18176;49.502;11.754;2023-12-20T04:27:54;0.67;;;0.67;;
21183;SDS011;18176;49.502;11.754;2023-12-20T04:31:57;1.20;;;0.80;;
21183;SDS011;18176;49.502;11.754;2023-12-20T04:35:57;1.10;;;0.90;;
21183;SDS011;18176;49.502;11.754;2023-12-20T04:39:57;1.33;;;0.73;;
21183;SDS011;18176;49.502;11.754;2023-12-20T04:43:58;2.83;;;1.00;;
21183;SDS011;18176;49.502;11.754;2023-12-20T04:48:01;1.80;;;0.80;;
21183;SDS011;18176;49.502;11.754;2023-12-20T04:52:03;0.90;;;0.80;;
21183;SDS011;18176;49.502;11.754;2023-12-20T04:56:04;3.40;;;0.90;;
21183;SDS011;18176;49.502;11.754;2023-12-20T05:00:06;1.00;;;0.77;;
21183;SDS011;18176;49.502;11.754;2023-12-20T05:04:10;0.80;;;0.80;;
21183;SDS011;18176;49.502;11.754;2023-12-20T05:08:10;1.20;;;1.00;;
21183;SDS011;18176;49.502;11.754;2023-12-20T05:12:10;2.57;;;0.97;;
21183;SDS011;18176;49.502;11.754;2023-12-20T05:16:11;1.27;;;1.00;;
21183;SDS011;18176;49.502;11.754;2023-12-20T05:20:18;1.40;;;1.10;;
21183;SDS011;18176;49.502;11.754;2023-12-20T05:24:18;1.10;;;1.00;;
21183;SDS011;18176;49.502;11.754;2023-12-20T05:28:18;1.47;;;1.00;;
21183;SDS011;18176;49.502;11.754;2023-12-20T05:32:19;1.20;;;1.10;;
21183;SDS011;18176;49.502;11.754;2023-12-20T05:36:22;1.37;;;1.17;;
21183;SDS011;18176;49.502;11.754;2023-12-20T05:40:22;1.50;;;1.40;;
21183;SDS011;18176;49.502;11.754;2023-12-20T05:44:23;1.10;;;1.10;;
21183;SDS011;18176;49.502;11.754;2023-12-20T05:48:23;1.83;;;1.40;;
21183;SDS011;18176;49.502;11.754;2023-12-20T05:52:27;2.57;;;1.70;;
21183;SDS011;18176;49.502;11.754;2023-12-20T05:56:27;1.50;;;1.40;;
21183;SDS011;18176;49.502;11.754;2023-12-20T06:00:27;1.90;;;1.50;;
21183;SDS011;18176;49.502;11.754;2023-12-20T06:04:27;1.57;;;1.47;;
21183;SDS011;18176;49.502;11.754;2023-12-20T06:08:30;1.60;;;1.50;;
21183;SDS011;18176;49.502;11.754;2023-12-20T06:12:31;1.50;;;1.40;;
21183;SDS011;18176;49.502;11.754;2023-12-20T06:16:32;1.40;;;1.30;;
21183;SDS011;18176;49.502;11.754;2023-12-20T06:20:33;1.40;;;1.30;;
21183;SDS011;18176;49.502;11.754;2023-12-20T06:24:35;1.50;;;1.40;;
21183;SDS011;18176;49.502;11.754;2023-12-20T06:28:36;3.40;;;2.40;;
21183;SDS011;18176;49.502;11.754;2023-12-20T06:32:37;1.47;;;1.37;;
21183;SDS011;18176;49.502;11.754;2023-12-20T06:36:39;1.40;;;1.30;;
21183;SDS011;18176;49.502;11.754;2023-12-20T06:40:41;2.27;;;1.60;;
21183;SDS011;18176;49.502;11.754;2023-12-20T06:44:42;1.57;;;1.47;;
21183;SDS011;18176;49.502;11.754;2023-12-20T06:48:42;1.93;;;1.50;;
21183;SDS011;18176;49.502;11.754;2023-12-20T06:52:43;1.50;;;1.40;;
21183;SDS011;18176;49.502;11.754;2023-12-20T06:56:46;1.47;;;1.37;;
21183;SDS011;18176;49.502;11.754;2023-12-20T07:00:48;1.40;;;1.30;;
21183;SDS011;18176;49.502;11.754;2023-12-20T07:04:50;1.50;;;1.40;;
21183;SDS011;18176;49.502;11.754;2023-12-20T07:08:51;2.10;;;1.90;;
21183;SDS011;18176;49.502;11.754;2023-12-20T07:12:54;1.87;;;1.70;;
21183;SDS011;18176;49.502;11.754;2023-12-20T07:16:55;3.80;;;1.60;;
21183;SDS011;18176;49.502;11.754;2023-12-20T07:20:55;1.50;;;1.30;;
21183;SDS011;18176;49.502;11.754;2023-12-20T07:24:55;4.07;;;2.83;;
21183;SDS011;18176;49.502;11.754;2023-12-20T07:28:58;3.23;;;2.57;;
21183;SDS011;18176;49.502;11.754;2023-12-20T07:32:59;2.87;;;1.60;;
21183;SDS011;18176;49.502;11.754;2023-12-20T07:37:00;1.90;;;1.70;;
21183;SDS011;18176;49.502;11.754;2023-12-20T07:41:00;2.50;;;2.30;;
21183;SDS011;18176;49.502;11.754;2023-12-20T07:45:04;2.70;;;2.50;;
21183;SDS011;18176;49.502;11.754;2023-12-20T07:49:05;3.00;;;2.70;;
21183;SDS011;18176;49.502;11.754;2023-12-20T07:53:06;3.33;;;3.03;;
21183;SDS011;18176;49.502;11.754;2023-12-20T07:57:07;4.00;;;3.60;;
21183;SDS011;18176;49.502;11.754;2023-12-20T08:01:11;4.40;;;4.00;;
21183;SDS011;18176;49.502;11.754;2023-12-20T08:05:12;4.70;;;3.57;;
21183;SDS011;18176;49.502;11.754;2023-12-20T08:09:14;4.03;;;3.63;;
21183;SDS011;18176;49.502;11.754;2023-12-20T08:13:14;5.37;;;3.47;;
21183;SDS011;18176;49.502;11.754;2023-12-20T08:17:17;5.43;;;3.60;;
21183;SDS011;18176;49.502;11.754;2023-12-20T08:21:19;5.47;;;3.73;;
21183;SDS011;18176;49.502;11.754;2023-12-20T08:25:20;4.90;;;4.37;;
21183;SDS011;18176;49.502;11.754;2023-12-20T08:29:20;5.00;;;4.47;;
21183;SDS011;18176;49.502;11.754;2023-12-20T08:33:23;4.10;;;3.70;;
21183;SDS011;18176;49.502;11.754;2023-12-20T08:37:23;5.80;;;4.33;;
21183;SDS011;18176;49.502;11.754;2023-12-20T08:41:23;4.20;;;3.80;;
21183;SDS011;18176;49.502;11.754;2023-12-20T08:45:24;5.07;;;4.00;;
21183;SDS011;18176;49.502;11.754;2023-12-20T08:49:28;5.43;;;4.23;;
21183;SDS011;18176;49.502;11.754;2023-12-20T08:53:28;5.93;;;4.50;;
21183;SDS011;18176;49.502;11.754;2023-12-20T08:57:28;5.17;;;3.83;;
21183;SDS011;18176;49.502;11.754;2023-12-20T09:01:30;4.90;;;3.87;;
21183;SDS011;18176;49.502;11.754;2023-12-20T09:05:33;5.50;;;3.70;;
21183;SDS011;18176;49.502;11.754;2023-12-20T09:09:33;5.33;;;3.53;;
21183;SDS011;18176;49.502;11.754;2023-12-20T09:13:33;4.30;;;3.90;;
21183;SDS011;18176;49.502;11.754;2023-12-20T09:17:33;3.67;;;3.07;;
21183;SDS011;18176;49.502;11.754;2023-12-20T09:21:36;3.10;;;2.90;;
21183;SDS011;18176;49.502;11.754;2023-12-20T09:25:37;3.50;;;3.20;;
21183;SDS011;18176;49.502;11.754;2023-12-20T09:29:38;4.37;;;2.60;;
21183;SDS011;18176;49.502;11.754;2023-12-20T09:33:38;1.90;;;1.70;;
21183;SDS011;18176;49.502;11.754;2023-12-20T09:37:41;2.07;;;1.30;;
21183;SDS011;18176;49.502;11.754;2023-12-20T09:41:44;2.23;;;1.70;;
21183;SDS011;18176;49.502;11.754;2023-12-20T09:45:48;2.20;;;2.00;;
21183;SDS011;18176;49.502;11.754;2023-12-20T09:49:52;2.53;;;2.33;;
21183;SDS011;18176;49.502;11.754;2023-12-20T09:53:56;3.27;;;2.63;;
21183;SDS011;18176;49.502;11.754;2023-12-20T09:57:59;7.33;;;3.10;;
21183;SDS011;18176;49.502;11.754;2023-12-20T10:02:00;2.63;;;2.00;;
21183;SDS011;18176;49.502;11.754;2023-12-20T10:06:08;5.67;;;2.60;;
21183;SDS011;18176;49.502;11.754;2023-12-20T10:10:12;5.97;;;2.47;;
21183;SDS011;18176;49.502;11.754;2023-12-20T10:14:13;4.93;;;2.40;;
21183;SDS011;18176;49.502;11.754;2023-12-20T10:18:16;2.47;;;2.20;;
21183;SDS011;18176;49.502;11.754;2023-12-20T10:22:17;4.87;;;2.20;;
21183;SDS011;18176;49.502;11.754;2023-12-20T10:26:23;5.27;;;1.90;;
21183;SDS011;18176;49.502;11.754;2023-12-20T10:30:26;6.93;;;3.13;;
21183;SDS011;18176;49.502;11.754;2023-12-20T10:34:27;4.43;;;2.50;;
21183;SDS011;18176;49.502;11.754;2023-12-20T10:38:27;3.10;;;2.63;;
21183;SDS011;18176;49.502;11.754;2023-12-20T10:42:31;10.10;;;2.67;;
21183;SDS011;18176;49.502;11.754;2023-12-20T10:46:33;4.83;;;2.60;;
21183;SDS011;18176;49.502;11.754;2023-12-20T10:50:34;5.07;;;2.60;;
21183;SDS011;18176;49.502;11.754;2023-12-20T10:54:37;7.50;;;3.00;;
21183;SDS011;18176;49.502;11.754;2023-12-20T10:58:41;5.43;;;2.63;;
21183;SDS011;18176;49.502;11.754;2023-12-20T11:02:42;6.73;;;2.37;;
21183;SDS011;18176;49.502;11.754;2023-12-20T11:06:45;6.73;;;2.90;;
21183;SDS011;18176;49.502;11.754;2023-12-20T11:10:54;9.20;;;3.33;;
21183;SDS011;18176;49.502;11.754;2023-12-20T11:15:05;5.80;;;2.10;;
21183;SDS011;18176;49.502;11.754;2023-12-20T11:19:07;6.83;;;2.07;;
21183;SDS011;18176;49.502;11.754;2023-12-20T11:23:10;4.83;;;2.37;;
21183;SDS011;18176;49.502;11.754;2023-12-20T11:27:11;5.83;;;2.10;;
21183;SDS011;18176;49.502;11.754;2023-12-20T11:31:15;7.33;;;2.50;;
21183;SDS011;18176;49.502;11.754;2023-12-20T11:35:19;3.07;;;1.90;;
21183;SDS011;18176;49.502;11.754;2023-12-20T11:39:21;8.67;;;2.60;;
21183;SDS011;18176;49.502;11.754;2023-12-20T11:43:31;9.80;;;2.67;;
21183;SDS011;18176;49.502;11.754;2023-12-20T11:47:37;5.23;;;1.80;;
21183;SDS011;18176;49.502;11.754;2023-12-20T11:51:40;5.57;;;2.50;;
21183;SDS011;18176;49.502;11.754;2023-12-20T11:55:41;8.10;;;2.30;;
21183;SDS011;18176;49.502;11.754;2023-12-20T11:59:44;7.17;;;2.47;;
21183;SDS011;18176;49.502;11.754;2023-12-20T12:03:48;5.87;;;2.10;;
21183;SDS011;18176;49.502;11.754;2023-12-20T12:08:01;9.27;;;2.30;;
21183;SDS011;18176;49.502;11.754;2023-12-20T12:12:02;5.30;;;1.77;;
21183;SDS011;18176;49.502;11.754;2023-12-20T12:16:09;4.27;;;2.07;;
21183;SDS011;18176;49.502;11.754;2023-12-20T12:20:13;3.67;;;2.00;;
21183;SDS011;18176;49.502;11.754;2023-12-20T12:24:13;7.43;;;2.23;;
21183;SDS011;18176;49.502;11.754;2023-12-20T12:28:14;4.57;;;1.57;;
21183;SDS011;18176;49.502;11.754;2023-12-20T12:32:15;5.47;;;2.00;;
21183;SDS011;18176;49.502;11.754;2023-12-20T12:36:18;6.33;;;1.80;;
21183;SDS011;18176;49.502;11.754;2023-12-20T12:40:19;5.30;;;1.70;;
21183;SDS011;18176;49.502;11.754;2023-12-20T12:44:19;5.83;;;1.90;;
21183;SDS011;18176;49.502;11.754;2023-12-20T12:48:20;5.87;;;1.73;;
21183;SDS011;18176;49.502;11.754;2023-12-20T12:52:24;5.57;;;1.73;;
21183;SDS011;18176;49.502;11.754;2023-12-20T12:56:25;5.27;;;1.70;;
21183;SDS011;18176;49.502;11.754;2023-12-20T13:00:26;2.87;;;1.70;;
21183;SDS011;18176;49.502;11.754;2023-12-20T13:04:26;6.63;;;1.67;;
21183;SDS011;18176;49.502;11.754;2023-12-20T13:08:29;4.07;;;1.77;;
21183;SDS011;18176;49.502;11.754;2023-12-20T13:12:30;4.23;;;1.63;;
21183;SDS011;18176;49.502;11.754;2023-12-20T13:16:30;8.77;;;2.30;;
21183;SDS011;18176;49.502;11.754;2023-12-20T13:20:31;7.00;;;1.93;;
21183;SDS011;18176;49.502;11.754;2023-12-20T13:24:34;7.87;;;2.10;;
21183;SDS011;18176;49.502;11.754;2023-12-20T13:28:34;5.20;;;2.10;;
21183;SDS011;18176;49.502;11.754;2023-12-20T13:32:35;10.10;;;2.40;;
21183;SDS011;18176;49.502;11.754;2023-12-20T13:36:35;7.97;;;2.17;;
21183;SDS011;18176;49.502;11.754;2023-12-20T13:40:39;4.83;;;2.07;;
21183;SDS011;18176;49.502;11.754;2023-12-20T13:44:39;5.20;;;2.43;;
21183;SDS011;18176;49.502;11.754;2023-12-20T13:48:40;5.70;;;2.30;;
21183;SDS011;18176;49.502;11.754;2023-12-20T13:52:41;7.03;;;2.53;;
21183;SDS011;18176;49.502;11.754;2023-12-20T13:56:45;7.70;;;2.20;;
21183;SDS011;18176;49.502;11.754;2023-12-20T14:01:04;7.03;;;2.43;;
21183;SDS011;18176;49.502;11.754;2023-12-20T14:05:05;6.50;;;2.20;;
21183;SDS011;18176;49.502;11.754;2023-12-20T14:09:06;5.30;;;2.83;;
21183;SDS011;18176;49.502;11.754;2023-12-20T14:13:11;7.07;;;2.60;;
21183;SDS011;18176;49.502;11.754;2023-12-20T14:17:11;5.27;;;3.33;;
21183;SDS011;18176;49.502;11.754;2023-12-20T14:21:12;11.03;;;4.37;;
21183;SDS011;18176;49.502;11.754;2023-12-20T14:25:12;7.43;;;2.30;;
21183;SDS011;18176;49.502;11.754;2023-12-20T14:29:16;6.57;;;2.50;;
21183;SDS011;18176;49.502;11.754;2023-12-20T14:33:17;6.37;;;2.03;;
21183;SDS011;18176;49.502;11.754;2023-12-20T14:37:18;7.00;;;2.80;;
21183;SDS011;18176;49.502;11.754;2023-12-20T14:41:19;7.53;;;2.40;;
21183;SDS011;18176;49.502;11.754;2023-12-20T14:45:24;7.47;;;2.33;;
21183;SDS011;18176;49.502;11.754;2023-12-20T14:49:24;4.90;;;2.30;;
21183;SDS011;18176;49.502;11.754;2023-12-20T14:53:26;4.87;;;2.10;;
21183;SDS011;18176;49.502;11.754;2023-12-20T14:57:26;8.60;;;2.30;;
21183;SDS011;18176;49.502;11.754;2023-12-20T15:01:29;5.57;;;2.10;;
21183;SDS011;18176;49.502;11.754;2023-12-20T15:05:29;5.23;;;2.10;;
21183;SDS011;18176;49.502;11.754;2023-12-20T15:09:30;6.77;;;2.17;;
21183;SDS011;18176;49.502;11.754;2023-12-20T15:13:31;6.50;;;2.40;;
21183;SDS011;18176;49.502;11.754;2023-12-20T15:17:34;5.20;;;1.90;;
21183;SDS011;18176;49.502;11.754;2023-12-20T15:21:35;4.37;;;2.00;;
21183;SDS011;18176;49.502;11.754;2023-12-20T15:25:43;7.83;;;2.27;;
21183;SDS011;18176;49.502;11.754;2023-12-20T15:29:43;3.67;;;1.80;;
21183;SDS011;18176;49.502;11.754;2023-12-20T15:33:49;5.37;;;1.80;;
21183;SDS011;18176;49.502;11.754;2023-12-20T15:37:49;9.00;;;2.40;;
21183;SDS011;18176;49.502;11.754;2023-12-20T15:41:50;7.50;;;2.20;;
21183;SDS011;18176;49.502;11.754;2023-12-20T15:45:50;3.23;;;2.03;;
21183;SDS011;18176;49.502;11.754;2023-12-20T15:49:53;4.57;;;1.93;;
21183;SDS011;18176;49.502;11.754;2023-12-20T15:53:58;4.63;;;2.27;;
21183;SDS011;18176;49.502;11.754;2023-12-20T15:58:02;6.73;;;1.90;;
21183;SDS011;18176;49.502;11.754;2023-12-20T16:02:03;6.37;;;2.57;;
21183;SDS011;18176;49.502;11.754;2023-12-20T16:06:06;6.90;;;2.63;;
21183;SDS011;18176;49.502;11.754;2023-12-20T16:10:09;6.73;;;2.50;;
21183;SDS011;18176;49.502;11.754;2023-12-20T16:14:10;4.77;;;2.60;;
21183;SDS011;18176;49.502;11.754;2023-12-20T16:18:14;6.50;;;2.47;;
21183;SDS011;18176;49.502;11.754;2023-12-20T16:22:17;7.33;;;2.63;;
21183;SDS011;18176;49.502;11.754;2023-12-20T16:26:17;6.33;;;2.70;;
21183;SDS011;18176;49.502;11.754;2023-12-20T16:30:17;4.83;;;2.60;;
21183;SDS011;18176;49.502;11.754;2023-12-20T16:34:18;5.80;;;2.63;;
21183;SDS011;18176;49.502;11.754;2023-12-20T16:38:21;6.50;;;2.90;;
21183;SDS011;18176;49.502;11.754;2023-12-20T16:42:21;8.60;;;3.60;;
21183;SDS011;18176;49.502;11.754;2023-12-20T16:46:22;10.03;;;3.23;;
21183;SDS011;18176;49.502;11.754;2023-12-20T16:50:22;9.93;;;4.10;;
21183;SDS011;18176;49.502;11.754;2023-12-20T16:54:25;10.47;;;4.73;;
21183;SDS011;18176;49.502;11.754;2023-12-20T16:58:26;7.60;;;3.83;;
21183;SDS011;18176;49.502;11.754;2023-12-20T17:02:27;6.47;;;3.57;;
21183;SDS011;18176;49.502;11.754;2023-12-20T17:06:31;9.00;;;3.40;;
21183;SDS011;18176;49.502;11.754;2023-12-20T17:10:34;10.07;;;3.40;;
21183;SDS011;18176;49.502;11.754;2023-12-20T17:14:35;5.50;;;2.87;;
21183;SDS011;18176;49.502;11.754;2023-12-20T17:18:35;8.37;;;3.17;;
21183;SDS011;18176;49.502;11.754;2023-12-20T17:22:35;6.43;;;3.00;;
21183;SDS011;18176;49.502;11.754;2023-12-20T17:26:39;4.23;;;3.10;;
21183;SDS011;18176;49.502;11.754;2023-12-20T17:30:39;8.87;;;3.07;;
21183;SDS011;18176;49.502;11.754;2023-12-20T17:34:43;6.57;;;3.30;;
21183;SDS011;18176;49.502;11.754;2023-12-20T17:38:43;6.27;;;3.30;;
21183;SDS011;18176;49.502;11.754;2023-12-20T17:42:46;7.57;;;3.23;;
21183;SDS011;18176;49.502;11.754;2023-12-20T17:46:47;8.47;;;3.00;;
21183;SDS011;18176;49.502;11.754;2023-12-20T17:50:48;5.33;;;2.90;;
21183;SDS011;18176;49.502;11.754;2023-12-20T17:54:51;9.13;;;3.17;;
21183;SDS011;18176;49.502;11.754;2023-12-20T17:58:53;6.70;;;3.07;;
21183;SDS011;18176;49.502;11.754;2023-12-20T18:02:54;9.33;;;3.20;;
21183;SDS011;18176;49.502;11.754;2023-12-20T18:06:55;6.83;;;3.37;;
21183;SDS011;18176;49.502;11.754;2023-12-20T18:10:55;6.87;;;2.90;;
21183;SDS011;18176;49.502;11.754;2023-12-20T18:14:58;8.57;;;3.17;;
21183;SDS011;18176;49.502;11.754;2023-12-20T18:18:59;9.60;;;3.70;;
21183;SDS011;18176;49.502;11.754;2023-12-20T18:23:01;7.37;;;2.80;;
21183;SDS011;18176;49.502;11.754;2023-12-20T18:27:01;5.50;;;2.53;;
21183;SDS011;18176;49.502;11.754;2023-12-20T18:31:04;5.83;;;2.70;;
21183;SDS011;18176;49.502;11.754;2023-12-20T18:35:05;7.13;;;3.30;;
21183;SDS011;18176;49.502;11.754;2023-12-20T18:39:06;7.37;;;3.70;;
21183;SDS011;18176;49.502;11.754;2023-12-20T18:43:07;7.33;;;3.10;;
21183;SDS011;18176;49.502;11.754;2023-12-20T18:47:10;8.00;;;3.50;;
21183;SDS011;18176;49.502;11.754;2023-12-20T18:51:11;8.20;;;3.30;;
21183;SDS011;18176;49.502;11.754;2023-12-20T18:55:11;6.67;;;3.33;;
21183;SDS011;18176;49.502;11.754;2023-12-20T18:59:12;10.00;;;3.83;;
21183;SDS011;18176;49.502;11.754;2023-12-20T19:03:16;7.00;;;3.50;;
21183;SDS011;18176;49.502;11.754;2023-12-20T19:07:17;7.53;;;3.67;;
21183;SDS011;18176;49.502;11.754;2023-12-20T19:11:18;7.43;;;3.50;;
21183;SDS011;18176;49.502;11.754;2023-12-20T19:15:19;6.13;;;3.57;;
21183;SDS011;18176;49.502;11.754;2023-12-20T19:19:23;5.83;;;3.30;;
21183;SDS011;18176;49.502;11.754;2023-12-20T19:23:25;9.17;;;4.00;;
21183;SDS011;18176;49.502;11.754;2023-12-20T19:27:25;6.83;;;3.47;;
21183;SDS011;18176;49.502;11.754;2023-12-20T19:31:26;8.43;;;4.00;;
21183;SDS011;18176;49.502;11.754;2023-12-20T19:35:29;7.50;;;3.20;;
21183;SDS011;18176;49.502;11.754;2023-12-20T19:39:30;5.37;;;2.93;;
21183;SDS011;18176;49.502;11.754;2023-12-20T19:43:32;7.00;;;2.77;;
21183;SDS011;18176;49.502;11.754;2023-12-20T19:47:32;7.00;;;3.07;;
21183;SDS011;18176;49.502;11.754;2023-12-20T19:51:36;8.90;;;3.43;;
21183;SDS011;18176;49.502;11.754;2023-12-20T19:55:36;6.63;;;2.90;;
21183;SDS011;18176;49.502;11.754;2023-12-20T19:59:37;6.30;;;2.90;;
21183;SDS011;18176;49.502;11.754;2023-12-20T20:03:38;3.83;;;2.77;;
21183;SDS011;18176;49.502;11.754;2023-12-20T20:07:42;6.03;;;2.70;;
21183;SDS011;18176;49.502;11.754;2023-12-20T20:11:43;4.60;;;2.60;;
21183;SDS011;18176;49.502;11.754;2023-12-20T20:15:45;7.07;;;2.70;;
21183;SDS011;18176;49.502;11.754;2023-12-20T20:19:47;6.13;;;3.43;;
21183;SDS011;18176;49.502;11.754;2023-12-20T20:23:50;6.00;;;3.10;;
21183;SDS011;18176;49.502;11.754;2023-12-20T20:27:50;5.23;;;2.80;;
21183;SDS011;18176;49.502;11.754;2023-12-20T20:31:51;12.70;;;4.87;;
21183;SDS011;18176;49.502;11.754;2023-12-20T20:35:52;3.77;;;2.50;;
21183;SDS011;18176;49.502;11.754;2023-12-20T20:39:55;3.43;;;2.00;;
21183;SDS011;18176;49.502;11.754;2023-12-20T20:43:56;5.10;;;2.20;;
21183;SDS011;18176;49.502;11.754;2023-12-20T20:47:57;5.40;;;2.80;;
21183;SDS011;18176;49.502;11.754;2023-12-20T20:52:16;3.53;;;2.10;;
21183;SDS011;18176;49.502;11.754;2023-12-20T20:56:19;3.40;;;2.20;;
21183;SDS011;18176;49.502;11.754;2023-12-20T21:00:20;5.20;;;2.27;;
21183;SDS011;18176;49.502;11.754;2023-12-20T21:04:21;6.17;;;2.57;;
21183;SDS011;18176;49.502;11.754;2023-12-20T21:08:21;4.33;;;2.20;;
21183;SDS011;18176;49.502;11.754;2023-12-20T21:12:24;4.80;;;2.57;;
21183;SDS011;18176;49.502;11.754;2023-12-20T21:16:25;4.23;;;2.23;;
21183;SDS011;18176;49.502;11.754;2023-12-20T21:20:26;6.50;;;2.60;;
21183;SDS011;18176;49.502;11.754;2023-12-20T21:24:26;4.87;;;2.63;;
21183;SDS011;18176;49.502;11.754;2023-12-20T21:28:29;8.57;;;2.60;;
21183;SDS011;18176;49.502;11.754;2023-12-20T21:32:30;3.50;;;1.77;;
21183;SDS011;18176;49.502;11.754;2023-12-20T21:36:32;3.93;;;2.13;;
21183;SDS011;18176;49.502;11.754;2023-12-20T21:40:32;2.90;;;2.00;;
21183;SDS011;18176;49.502;11.754;2023-12-20T21:44:35;4.77;;;1.93;;
21183;SDS011;18176;49.502;11.754;2023-12-20T21:48:36;3.37;;;2.10;;
21183;SDS011;18176;49.502;11.754;2023-12-20T21:52:39;4.23;;;1.90;;
21183;SDS011;18176;49.502;11.754;2023-12-20T21:56:40;4.20;;;2.17;;
21183;SDS011;18176;49.502;11.754;2023-12-20T22:00:44;4.03;;;1.87;;
21183;SDS011;18176;49.502;11.754;2023-12-20T22:04:44;2.47;;;1.63;;
21183;SDS011;18176;49.502;11.754;2023-12-20T22:08:45;3.87;;;1.53;;
21183;SDS011;18176;49.502;11.754;2023-12-20T22:12:45;4.70;;;2.23;;
21183;SDS011;18176;49.502;11.754;2023-12-20T22:16:49;4.20;;;1.77;;
21183;SDS011;18176;49.502;11.754;2023-12-20T22:20:50;5.10;;;2.40;;
21183;SDS011;18176;49.502;11.754;2023-12-20T22:24:52;6.87;;;2.30;;
21183;SDS011;18176;49.502;11.754;2023-12-20T22:28:53;3.70;;;2.10;;
21183;SDS011;18176;49.502;11.754;2023-12-20T22:32:57;6.70;;;2.57;;
21183;SDS011;18176;49.502;11.754;2023-12-20T22:36:58;6.20;;;2.37;;
21183;SDS011;18176;49.502;11.754;2023-12-20T22:41:00;4.33;;;1.90;;
21183;SDS011;18176;49.502;11.754;2023-12-20T22:45:02;4.53;;;2.10;;
21183;SDS011;18176;49.502;11.754;2023-12-20T22:49:07;4.77;;;1.80;;
21183;SDS011;18176;49.502;11.754;2023-12-20T22:53:09;5.40;;;2.17;;
21183;SDS011;18176;49.502;11.754;2023-12-20T22:57:11;4.73;;;2.27;;
21183;SDS011;18176;49.502;11.754;2023-12-20T23:01:17;4.60;;;2.00;;
21183;SDS011;18176;49.502;11.754;2023-12-20T23:05:21;3.47;;;2.00;;
21183;SDS011;18176;49.502;11.754;2023-12-20T23:09:22;5.03;;;2.30;;
21183;SDS011;18176;49.502;11.754;2023-12-20T23:13:23;5.63;;;2.30;;
21183;SDS011;18176;49.502;11.754;2023-12-20T23:17:25;6.40;;;2.27;;
21183;SDS011;18176;49.502;11.754;2023-12-20T23:21:29;5.23;;;2.07;;
21183;SDS011;18176;49.502;11.754;2023-12-20T23:25:29;3.97;;;1.83;;
21183;SDS011;18176;49.502;11.754;2023-12-20T23:29:31;4.77;;;2.57;;
21183;SDS011;18176;49.502;11.754;2023-12-20T23:33:32;5.33;;;2.20;;
21183;SDS011;18176;49.502;11.754;2023-12-20T23:37:35;7.70;;;2.30;;
21183;SDS011;18176;49.502;11.754;2023-12-20T23:41:37;4.07;;;2.20;;
21183;SDS011;18176;49.502;11.754;2023-12-20T23:45:38;6.97;;;2.83;;
21183;SDS011;18176;49.502;11.754;2023-12-20T23:49:38;4.13;;;2.40;;
21183;SDS011;18176;49.502;11.754;2023-12-20T23:53:42;4.80;;;1.70;;